Logo AVAMET
Benvolgut visitant, si us plau, ingressa Recuperar contrasenya

Gandia centre

Dades diàries. Acumulats / Últims 30 dies disponibles

Data Temperatura (°C) Humitat rel. (%) Pressió rel. (hPa) Vent (km/h) Precipitació
Mínima Mitjana Màxima Amplitud
tèrmica
Mínima Mitjana Màxima Mínima Mitjana Màxima Predom. Mitjana Ràfega
màxima
Total
(mm)
Índex-n
Mínima Mitjana Màxima Mínima Mitjana Màxima n
0 a 1
P0 max
mm 5'
Dades mensuals acumulades fins l'últim dia disponible
05/2019 10,9 15,9 22,5 19,9 19,3 24,7 32,2 21,3 57 1.011   2,8 43,0 6,9
Dades anuals acumulades fins l'últim dia disponible
2019 2,9 11,4 22,5 15,3 11,7 19,9 32,2 29,3 54 1.015   3,1 61,0 96,0
Últims 30 dies disponibles
29-05-2019 15,6     19,8     23,9 8,3 42 1.017 ENE 3,0 21,0 0,0
28-05-2019 17,3     20,6     23,1 5,8 56 1.011 ENE 2,0 18,0 0,0
27-05-2019 15,8     21,3     27,9 12,1 57 1.009 ENE 2,0 18,0 0,0
26-05-2019 15,3     19,4     22,7 7,4 58 1.013 E 2,0 19,0 0,0
25-05-2019 16,4     18,6     23,3 6,9 62 1.013 WNW 2,0 19,0 0,8
24-05-2019 17,0     18,9     20,3 3,3 72 1.011 WNW 2,0 19,0 1,0
23-05-2019 16,3     22,2     29,7 13,4 58 1.013 NW 1,0 18,0 0,0
22-05-2019 15,0     20,1     25,9 10,9 68 1.014 NNE 2,0 21,0 0,0
21-05-2019 17,3     19,4     24,8 7,5 69 1.012 WSW 2,0 35,0 3,3
20-05-2019 14,0     19,6     24,4 10,4 49 1.009 ENE 3,0 23,0 0,0
19-05-2019 14,1     18,7     23,7 9,6 54 1.007 WNW 2,0 23,0 0,0
18-05-2019 15,8     18,1     20,2 4,4 49 1.006 ENE 2,0 19,0 0,0
17-05-2019 17,4     21,0     24,6 7,2 38 1.002 WSW 9,0 43,0 0,0
16-05-2019 17,1     20,0     24,5 7,4 62 1.007 ENE 3,0 27,0 0,0
15-05-2019 16,2     19,6     22,5 6,3 61 1.009 N 3,0 21,0 0,0
14-05-2019 14,2     21,0     29,5 15,3 50 1.014 N 2,0 23,0 0,0
13-05-2019 16,4     19,9     24,7 8,3 58 1.016 NNE 2,0 18,0 0,0
12-05-2019 17,1     20,8     25,3 8,2 62 1.019 ENE 2,0 23,0 0,0
11-05-2019 18,8     22,4     28,0 9,2 56 1.015 NW 3,0 26,0 0,0
10-05-2019 22,5     27,0     32,2 9,7 38 1.009 SSW 5,0 32,0 0,0
09-05-2019 21,3     25,0     30,3 9,0 40 1.009 SW 6,0 32,0 0,0
08-05-2019 15,0     23,2     29,8 14,8 50 1.008 SW 6,0 37,0 0,0
07-05-2019 15,8     20,1     27,3 11,5 66 1.013 NW 2,0 19,0 0,0
06-05-2019 12,6     16,9     21,3 8,7 68 1.014 WNW 2,0 23,0 0,0
05-05-2019 13,5     17,1     21,6 8,1 56 1.011 ENE 2,0 23,0 0,0
04-05-2019 10,9     16,6     22,8 11,9 57 1.009 ENE 2,0 21,0 0,0
03-05-2019 12,5     15,3     19,3 6,8 69 1.009 NNE 2,0 23,0 1,5
02-05-2019 14,8     17,0     19,3 4,5 69 1.012 WNW 2,0 16,0 0,3
01-05-2019 15,1     17,7     22,2 7,1 68 1.011 ENE 2,0 26,0 0,0
29-04-2019 13,7     17,1     21,0 7,3 69 1.016 ENE 2,0 26,0 0,0
Últims 13 mesos disponibles
05/2019 10,9 15,9 22,5 19,9 19,3 24,7 32,2 21,3 38 57 72 1.002 1.011 1.019 ENE 2,8 43,0
04/2019 10,6 13,0 16,4 16,3 14,6 20,2 29,5 18,9 29 57 89 996 1.009 1.021 NW 4,5 43,0
03/2019 7,6 10,8 17,8 15,4 15,3 20,4 28,4 20,8 28 50 70 1.007 1.020 1.026 ENE 2,2 47,0 9,4
02/2019 6,7 8,8 11,8 12,9 13,3 17,4 23,9 17,2 25 55 73 992 1.021 1.030 E 2,8 61,0 0,0
01/2019 2,9 8,4 14,6 12,1 11,7 16,7 20,8 17,9 30 49 72 1.001 1.016 1.027 WSW 3,4 53,0 0,5
12/2018 6,8 10,6 14,8 14,3 14,9 19,1 25,0 18,2 40 60 80 1.005 1.021 1.027 WNW 2,2 40,0 21,8
11/2018 8,7 12,9 16,4 15,8 16,3 19,1 22,8 14,1 36 62 91 997 1.012 1.020 SW 2,9 55,0 228,6
10/2018 9,3 16,4 21,2 19,7 15,1 23,5 30,1 20,8 33 65 84 996 1.011 1.022 ENE 2,6 53,0 144,5
09/2018 16,4 21,5 24,9 24,9 24,8 28,8 33,7 17,3 55 70 80 1.009 1.015 1.024 1,4 37,0 117,9
08/2018 21,0 24,2 27,1 28,0 27,2 32,1 38,6 17,6 38 61 76 1.008 1.013 1.018 2,0 45,0 116,3
07/2018 22,6 24,2 26,6 28,1 28,2 32,7 38,6 16,0 25 57 71 1.006 1.011 1.016 2,5 47,0 0,8
06/2018 15,9 20,6 23,8 24,7 24,4 29,1 34,9 19,0 35 53 71 1.006 1.011 1.017 ENE 2,5 40,0 20,8
05/2018 10,9 16,1 19,5 20,1 17,7 24,4 29,6 18,7 36 56 74 1.006 1.011 1.014 ENE 2,4 35,0 4,8
Tots els anys disponibles
2018 4,3 16,0 27,1 19,5 8,4 23,6 38,6 34,3 25 57 91 990 1.012 1.031 ENE 3,0 63,0 842,0
2017 1,9 15,8 26,8 19,4 9,4 23,6 40,1 38,2 49 59 66 1.012 1.015 1.020 2,7 69,0 446,7
2016 4,4 16,1 27,3 19,6 10,9 23,6 41,2 36,8 48 58 74 1.010 1.015 1.023 3,0 61,0 490,1
2015 3,5 16,5 27,2 20,1 9,2 24,3 43,3 39,8 50 58 66 1.012 1.015 1.021 2,7 76,0 576,3
2014 4,2 16,5 27,4 20,0 11,6 24,2 38,3 34,1 26 56 84 989 1.013 1.030 3,1 61,0 221,7
2013 3,8 15,6 19,1 19,1 18,8 23,1 37,3 33,5 44 55 65 1.005 1.014 1.022 3,5 74,0 513,6
2012 1,3 15,4 20,7 19,3 21,7 23,6 41,6 40,3 44 57 66 1.006 1.014 1.022 2,9 58,0 676,3
2011 1,1 15,8 26,2 19,2 5,1 23,2 38,0 36,9 33 62 87 996 1.015 1.032 2,4 68,0 584,1
2010 2,0 15,0 26,2 18,5 6,2 22,5 41,1 39,1 24 59 86 989 1.012 1.027 2,8 72,0 618,2
2009 1,6 15,7 26,2 19,3 5,3 23,5 39,1 37,5 31 61 88 10 1.007 1.027 2,9 74,0 941,6
2008 5,4 14,2 25,5 17,3 12,0 21,1 35,3 29,9 25 62 89 996 1.015 1.029 2,8 51,0 463,9
2007 5,2 15,7 25,6 19,6 9,8 23,8 37,7 32,5 29 64 92 1.007 1.017 1.035 5,2 74,0 563,4
2006 3,4 15,1 19,1 23,1 37,3 33,9 33 66 92 1.001 1.017 1.037 4,1 66,0 744,0
Temperatura (°C)
Humitat relativa (%)
Velocitat del vent i ràfega màxima (km/h)
Direcció del vent (°)
Pressió (hPa)
Precipitació (mm)
Nota sobre les dades: s'avisa a l'usuari de la provisionalitat i no oficialitat d'aquestes dades
Logo AVAMET blanc
Web allotjada a Sollutia
Llicència de Creative CommonsLa web d'AVAMET i els seus continguts estan subjectes a una llicència de
Reconeixement - No Comercial - Compartir igual
Properes estacions: Altea - Club Nàutic d'Altea (Soci),    - - - - -      Últimes estacions: Llíria - Bodegas del Campo (Soci), La Pobla Tornesa (Soci), Quartell (Soci), Alzira - Est (Soci/Inforatge), San Miguel de las Salinas (MeteOrihuela), Segorbe (Inforatge), Alcalà de Xivert - Alcossebre (Inforatge), Moixent - la Foia (Soci), Callosa d'en Sarrià - Centre (Soci) - - -